sensor_id;sensor_type;location;lat;lon;timestamp;temperature;humidity
42615;DHT22;28754;47.700;7.924;2022-10-17T00:00:23;15.60;99.90
42615;DHT22;28754;47.700;7.924;2022-10-17T00:03:10;15.50;99.90
42615;DHT22;28754;47.700;7.924;2022-10-17T00:05:57;15.50;99.90
42615;DHT22;28754;47.700;7.924;2022-10-17T00:08:44;15.50;99.90
42615;DHT22;28754;47.700;7.924;2022-10-17T00:11:31;15.50;99.90
42615;DHT22;28754;47.700;7.924;2022-10-17T00:14:18;15.50;99.90
42615;DHT22;28754;47.700;7.924;2022-10-17T00:17:05;15.50;99.90
42615;DHT22;28754;47.700;7.924;2022-10-17T00:19:51;15.40;99.90
42615;DHT22;28754;47.700;7.924;2022-10-17T00:22:38;15.40;99.90
42615;DHT22;28754;47.700;7.924;2022-10-17T00:25:25;15.40;99.90
42615;DHT22;28754;47.700;7.924;2022-10-17T00:28:14;15.30;99.90
42615;DHT22;28754;47.700;7.924;2022-10-17T00:31:03;15.30;99.90
42615;DHT22;28754;47.700;7.924;2022-10-17T00:33:54;15.20;99.90
42615;DHT22;28754;47.700;7.924;2022-10-17T00:36:40;15.30;99.90
42615;DHT22;28754;47.700;7.924;2022-10-17T00:39:27;15.30;99.90
42615;DHT22;28754;47.700;7.924;2022-10-17T00:42:15;15.30;99.90
42615;DHT22;28754;47.700;7.924;2022-10-17T00:45:19;15.30;99.90
42615;DHT22;28754;47.700;7.924;2022-10-17T00:48:08;15.20;99.90
42615;DHT22;28754;47.700;7.924;2022-10-17T00:50:56;15.30;99.90
42615;DHT22;28754;47.700;7.924;2022-10-17T00:53:45;15.30;99.90
42615;DHT22;28754;47.700;7.924;2022-10-17T00:56:32;15.30;99.90
42615;DHT22;28754;47.700;7.924;2022-10-17T00:59:20;15.40;99.90
42615;DHT22;28754;47.700;7.924;2022-10-17T01:02:12;15.30;99.90
42615;DHT22;28754;47.700;7.924;2022-10-17T01:05:00;15.30;99.90
42615;DHT22;28754;47.700;7.924;2022-10-17T01:07:49;15.30;99.90
42615;DHT22;28754;47.700;7.924;2022-10-17T01:13:52;15.20;99.90
42615;DHT22;28754;47.700;7.924;2022-10-17T01:16:53;15.20;99.90
42615;DHT22;28754;47.700;7.924;2022-10-17T01:20:46;15.30;99.90
42615;DHT22;28754;47.700;7.924;2022-10-17T01:43:02;15.20;99.90
42615;DHT22;28754;47.700;7.924;2022-10-17T01:45:57;15.20;99.90
42615;DHT22;28754;47.700;7.924;2022-10-17T01:48:48;15.20;99.90
42615;DHT22;28754;47.700;7.924;2022-10-17T01:51:54;15.20;99.90
42615;DHT22;28754;47.700;7.924;2022-10-17T01:54:44;15.20;99.90
42615;DHT22;28754;47.700;7.924;2022-10-17T01:57:40;15.20;99.90
42615;DHT22;28754;47.700;7.924;2022-10-17T02:00:33;15.20;99.90
42615;DHT22;28754;47.700;7.924;2022-10-17T02:03:25;15.20;99.90
42615;DHT22;28754;47.700;7.924;2022-10-17T02:06:43;15.10;99.90
42615;DHT22;28754;47.700;7.924;2022-10-17T02:09:32;15.20;99.90
42615;DHT22;28754;47.700;7.924;2022-10-17T02:12:37;15.10;99.90
42615;DHT22;28754;47.700;7.924;2022-10-17T02:16:02;15.00;99.90
42615;DHT22;28754;47.700;7.924;2022-10-17T02:23:01;15.20;99.90
42615;DHT22;28754;47.700;7.924;2022-10-17T02:26:37;15.20;99.90
42615;DHT22;28754;47.700;7.924;2022-10-17T02:32:06;15.10;99.90
42615;DHT22;28754;47.700;7.924;2022-10-17T02:34:57;15.10;99.90
42615;DHT22;28754;47.700;7.924;2022-10-17T02:37:48;15.10;99.90
42615;DHT22;28754;47.700;7.924;2022-10-17T02:40:37;15.00;99.90
42615;DHT22;28754;47.700;7.924;2022-10-17T02:43:27;15.00;99.90
42615;DHT22;28754;47.700;7.924;2022-10-17T02:46:17;14.90;99.90
42615;DHT22;28754;47.700;7.924;2022-10-17T02:49:16;14.90;99.90
42615;DHT22;28754;47.700;7.924;2022-10-17T02:52:45;14.90;99.90
42615;DHT22;28754;47.700;7.924;2022-10-17T02:55:49;15.00;99.90
42615;DHT22;28754;47.700;7.924;2022-10-17T02:58:44;14.90;99.90
42615;DHT22;28754;47.700;7.924;2022-10-17T03:01:36;14.80;99.90
42615;DHT22;28754;47.700;7.924;2022-10-17T03:04:23;14.80;99.90
42615;DHT22;28754;47.700;7.924;2022-10-17T03:07:10;14.60;99.90
42615;DHT22;28754;47.700;7.924;2022-10-17T03:09:57;14.70;99.90
42615;DHT22;28754;47.700;7.924;2022-10-17T03:12:44;14.70;99.90
42615;DHT22;28754;47.700;7.924;2022-10-17T03:15:32;14.70;99.90
42615;DHT22;28754;47.700;7.924;2022-10-17T03:18:18;14.70;99.90
42615;DHT22;28754;47.700;7.924;2022-10-17T03:21:07;14.70;99.90
42615;DHT22;28754;47.700;7.924;2022-10-17T03:23:54;14.80;99.90
42615;DHT22;28754;47.700;7.924;2022-10-17T03:26:42;14.80;99.90
42615;DHT22;28754;47.700;7.924;2022-10-17T03:29:29;14.70;99.90
42615;DHT22;28754;47.700;7.924;2022-10-17T03:32:16;14.70;99.90
42615;DHT22;28754;47.700;7.924;2022-10-17T03:35:03;14.60;99.90
42615;DHT22;28754;47.700;7.924;2022-10-17T03:37:50;14.50;99.90
42615;DHT22;28754;47.700;7.924;2022-10-17T03:40:40;14.50;99.90
42615;DHT22;28754;47.700;7.924;2022-10-17T03:43:27;14.50;99.90
42615;DHT22;28754;47.700;7.924;2022-10-17T03:46:14;14.60;99.90
42615;DHT22;28754;47.700;7.924;2022-10-17T03:49:01;14.60;99.90
42615;DHT22;28754;47.700;7.924;2022-10-17T03:51:48;14.50;99.90
42615;DHT22;28754;47.700;7.924;2022-10-17T03:54:37;14.50;99.90
42615;DHT22;28754;47.700;7.924;2022-10-17T03:57:23;14.50;99.90
42615;DHT22;28754;47.700;7.924;2022-10-17T04:00:11;14.60;99.90
42615;DHT22;28754;47.700;7.924;2022-10-17T04:03:06;14.60;99.90
42615;DHT22;28754;47.700;7.924;2022-10-17T04:05:53;14.60;99.90
42615;DHT22;28754;47.700;7.924;2022-10-17T04:08:40;14.60;99.90
42615;DHT22;28754;47.700;7.924;2022-10-17T04:11:32;14.50;99.90
42615;DHT22;28754;47.700;7.924;2022-10-17T04:14:21;14.50;99.90
42615;DHT22;28754;47.700;7.924;2022-10-17T04:17:08;14.60;99.90
42615;DHT22;28754;47.700;7.924;2022-10-17T04:19:56;14.50;99.90
42615;DHT22;28754;47.700;7.924;2022-10-17T04:22:43;14.50;99.90
42615;DHT22;28754;47.700;7.924;2022-10-17T04:25:29;14.40;99.90
42615;DHT22;28754;47.700;7.924;2022-10-17T04:28:16;14.50;99.90
42615;DHT22;28754;47.700;7.924;2022-10-17T04:31:06;14.40;99.90
42615;DHT22;28754;47.700;7.924;2022-10-17T04:34:14;14.40;99.90
42615;DHT22;28754;47.700;7.924;2022-10-17T04:37:01;14.50;99.90
42615;DHT22;28754;47.700;7.924;2022-10-17T04:39:48;14.50;99.90
42615;DHT22;28754;47.700;7.924;2022-10-17T04:42:36;14.40;99.90
42615;DHT22;28754;47.700;7.924;2022-10-17T04:45:23;14.40;99.90
42615;DHT22;28754;47.700;7.924;2022-10-17T04:48:16;14.40;99.90
42615;DHT22;28754;47.700;7.924;2022-10-17T04:51:05;14.50;99.90
42615;DHT22;28754;47.700;7.924;2022-10-17T04:54:00;14.40;99.90
42615;DHT22;28754;47.700;7.924;2022-10-17T04:56:47;14.40;99.90
42615;DHT22;28754;47.700;7.924;2022-10-17T04:59:34;14.30;99.90
42615;DHT22;28754;47.700;7.924;2022-10-17T05:02:34;14.30;99.90
42615;DHT22;28754;47.700;7.924;2022-10-17T05:05:22;14.30;99.90
42615;DHT22;28754;47.700;7.924;2022-10-17T05:08:12;14.30;99.90
42615;DHT22;28754;47.700;7.924;2022-10-17T05:11:00;14.30;99.90
42615;DHT22;28754;47.700;7.924;2022-10-17T05:13:52;14.30;99.90
42615;DHT22;28754;47.700;7.924;2022-10-17T05:16:40;14.30;99.90
42615;DHT22;28754;47.700;7.924;2022-10-17T05:19:27;14.30;99.90
42615;DHT22;28754;47.700;7.924;2022-10-17T05:22:14;14.20;99.90
42615;DHT22;28754;47.700;7.924;2022-10-17T05:25:01;14.20;99.90
42615;DHT22;28754;47.700;7.924;2022-10-17T05:27:48;14.20;99.90
42615;DHT22;28754;47.700;7.924;2022-10-17T05:30:37;14.20;99.90
42615;DHT22;28754;47.700;7.924;2022-10-17T05:33:26;14.30;99.90
42615;DHT22;28754;47.700;7.924;2022-10-17T05:36:13;14.20;99.90
42615;DHT22;28754;47.700;7.924;2022-10-17T05:39:01;14.30;99.90
42615;DHT22;28754;47.700;7.924;2022-10-17T05:41:49;14.40;99.90
42615;DHT22;28754;47.700;7.924;2022-10-17T05:44:37;14.30;99.90
42615;DHT22;28754;47.700;7.924;2022-10-17T05:47:27;14.30;99.90
42615;DHT22;28754;47.700;7.924;2022-10-17T05:50:13;14.40;99.90
42615;DHT22;28754;47.700;7.924;2022-10-17T05:53:20;14.40;99.90
42615;DHT22;28754;47.700;7.924;2022-10-17T05:56:11;14.40;99.90
42615;DHT22;28754;47.700;7.924;2022-10-17T05:59:00;14.50;99.90
42615;DHT22;28754;47.700;7.924;2022-10-17T06:01:57;14.50;99.90
42615;DHT22;28754;47.700;7.924;2022-10-17T06:04:44;14.50;99.90
42615;DHT22;28754;47.700;7.924;2022-10-17T06:07:33;14.60;99.90
42615;DHT22;28754;47.700;7.924;2022-10-17T06:10:21;14.70;99.90
42615;DHT22;28754;47.700;7.924;2022-10-17T06:13:08;14.90;99.90
42615;DHT22;28754;47.700;7.924;2022-10-17T06:15:56;15.00;99.90
42615;DHT22;28754;47.700;7.924;2022-10-17T06:18:43;15.20;99.90
42615;DHT22;28754;47.700;7.924;2022-10-17T06:21:31;15.30;99.90
42615;DHT22;28754;47.700;7.924;2022-10-17T06:24:29;15.40;99.90
42615;DHT22;28754;47.700;7.924;2022-10-17T06:27:16;15.60;99.90
42615;DHT22;28754;47.700;7.924;2022-10-17T06:30:03;15.80;99.90
42615;DHT22;28754;47.700;7.924;2022-10-17T06:32:52;16.10;99.90
42615;DHT22;28754;47.700;7.924;2022-10-17T06:35:39;16.80;99.90
42615;DHT22;28754;47.700;7.924;2022-10-17T06:38:26;18.00;99.90
42615;DHT22;28754;47.700;7.924;2022-10-17T06:41:16;18.50;99.90
42615;DHT22;28754;47.700;7.924;2022-10-17T06:44:04;18.80;99.90
42615;DHT22;28754;47.700;7.924;2022-10-17T06:47:04;19.80;99.90
42615;DHT22;28754;47.700;7.924;2022-10-17T06:49:52;20.80;99.90
42615;DHT22;28754;47.700;7.924;2022-10-17T06:52:44;22.20;99.90
42615;DHT22;28754;47.700;7.924;2022-10-17T06:55:51;21.90;99.90
42615;DHT22;28754;47.700;7.924;2022-10-17T06:58:57;22.60;99.90
42615;DHT22;28754;47.700;7.924;2022-10-17T07:01:48;22.90;99.90
42615;DHT22;28754;47.700;7.924;2022-10-17T07:04:36;23.30;99.90
42615;DHT22;28754;47.700;7.924;2022-10-17T07:07:23;23.80;99.90
42615;DHT22;28754;47.700;7.924;2022-10-17T07:10:09;24.10;99.90
42615;DHT22;28754;47.700;7.924;2022-10-17T07:12:57;24.00;99.90
42615;DHT22;28754;47.700;7.924;2022-10-17T07:15:43;24.30;99.90
42615;DHT22;28754;47.700;7.924;2022-10-17T07:18:30;24.50;99.90
42615;DHT22;28754;47.700;7.924;2022-10-17T07:21:17;25.40;99.90
42615;DHT22;28754;47.700;7.924;2022-10-17T07:24:04;26.10;99.90
42615;DHT22;28754;47.700;7.924;2022-10-17T07:26:53;27.30;99.90
42615;DHT22;28754;47.700;7.924;2022-10-17T07:29:40;28.00;99.90
42615;DHT22;28754;47.700;7.924;2022-10-17T07:32:30;28.80;99.90
42615;DHT22;28754;47.700;7.924;2022-10-17T07:35:18;28.40;99.90
42615;DHT22;28754;47.700;7.924;2022-10-17T07:38:07;28.50;99.90
42615;DHT22;28754;47.700;7.924;2022-10-17T07:40:59;29.50;99.90
42615;DHT22;28754;47.700;7.924;2022-10-17T07:43:47;30.30;99.90
42615;DHT22;28754;47.700;7.924;2022-10-17T07:46:37;30.80;99.90
42615;DHT22;28754;47.700;7.924;2022-10-17T07:49:25;32.40;99.90
42615;DHT22;28754;47.700;7.924;2022-10-17T07:52:13;32.30;99.90
42615;DHT22;28754;47.700;7.924;2022-10-17T07:55:00;33.80;99.90
42615;DHT22;28754;47.700;7.924;2022-10-17T07:57:47;34.90;99.90
42615;DHT22;28754;47.700;7.924;2022-10-17T08:00:35;34.80;99.90
42615;DHT22;28754;47.700;7.924;2022-10-17T08:03:22;35.30;99.90
42615;DHT22;28754;47.700;7.924;2022-10-17T08:06:08;34.90;99.90
42615;DHT22;28754;47.700;7.924;2022-10-17T08:08:55;34.40;99.90
42615;DHT22;28754;47.700;7.924;2022-10-17T08:11:43;33.40;99.90
42615;DHT22;28754;47.700;7.924;2022-10-17T08:14:29;33.40;99.90
42615;DHT22;28754;47.700;7.924;2022-10-17T08:17:16;33.20;99.90
42615;DHT22;28754;47.700;7.924;2022-10-17T08:20:04;33.80;99.90
42615;DHT22;28754;47.700;7.924;2022-10-17T08:22:53;35.00;99.90
42615;DHT22;28754;47.700;7.924;2022-10-17T08:25:40;35.40;99.90
42615;DHT22;28754;47.700;7.924;2022-10-17T08:28:27;35.80;99.90
42615;DHT22;28754;47.700;7.924;2022-10-17T08:31:18;36.20;99.90
42615;DHT22;28754;47.700;7.924;2022-10-17T08:34:06;37.50;99.90
42615;DHT22;28754;47.700;7.924;2022-10-17T08:36:53;37.80;99.90
42615;DHT22;28754;47.700;7.924;2022-10-17T08:39:40;39.10;99.90
42615;DHT22;28754;47.700;7.924;2022-10-17T08:42:45;39.60;99.90
42615;DHT22;28754;47.700;7.924;2022-10-17T08:45:53;39.80;99.90
42615;DHT22;28754;47.700;7.924;2022-10-17T08:48:47;40.20;99.90
42615;DHT22;28754;47.700;7.924;2022-10-17T08:51:43;40.80;98.50
42615;DHT22;28754;47.700;7.924;2022-10-17T08:54:41;38.90;98.40
42615;DHT22;28754;47.700;7.924;2022-10-17T08:57:31;39.30;99.50
42615;DHT22;28754;47.700;7.924;2022-10-17T09:00:19;39.80;98.00
42615;DHT22;28754;47.700;7.924;2022-10-17T09:06:39;37.70;99.70
42615;DHT22;28754;47.700;7.924;2022-10-17T09:09:57;39.90;97.80
42615;DHT22;28754;47.700;7.924;2022-10-17T09:13:29;42.30;96.60
42615;DHT22;28754;47.700;7.924;2022-10-17T09:17:06;41.40;94.30
42615;DHT22;28754;47.700;7.924;2022-10-17T09:20:10;40.50;95.30
42615;DHT22;28754;47.700;7.924;2022-10-17T09:23:09;40.20;96.60
42615;DHT22;28754;47.700;7.924;2022-10-17T09:26:01;39.60;98.10
42615;DHT22;28754;47.700;7.924;2022-10-17T09:28:53;39.90;96.90
42615;DHT22;28754;47.700;7.924;2022-10-17T09:31:56;39.40;98.20
42615;DHT22;28754;47.700;7.924;2022-10-17T09:34:47;40.90;96.10
42615;DHT22;28754;47.700;7.924;2022-10-17T09:37:34;43.50;95.00
42615;DHT22;28754;47.700;7.924;2022-10-17T09:40:30;43.50;92.50
42615;DHT22;28754;47.700;7.924;2022-10-17T09:43:18;41.50;93.40
42615;DHT22;28754;47.700;7.924;2022-10-17T09:46:16;41.10;93.90
42615;DHT22;28754;47.700;7.924;2022-10-17T09:49:13;39.30;94.70
42615;DHT22;28754;47.700;7.924;2022-10-17T09:52:09;41.80;93.90
42615;DHT22;28754;47.700;7.924;2022-10-17T09:58:15;42.60;91.80
42615;DHT22;28754;47.700;7.924;2022-10-17T10:01:17;41.60;94.30
42615;DHT22;28754;47.700;7.924;2022-10-17T10:04:15;42.10;92.70
42615;DHT22;28754;47.700;7.924;2022-10-17T10:07:04;39.30;93.90
42615;DHT22;28754;47.700;7.924;2022-10-17T10:09:58;39.80;95.70
42615;DHT22;28754;47.700;7.924;2022-10-17T10:13:02;41.30;93.80
42615;DHT22;28754;47.700;7.924;2022-10-17T10:16:30;39.60;93.70
42615;DHT22;28754;47.700;7.924;2022-10-17T10:19:37;38.90;94.30
42615;DHT22;28754;47.700;7.924;2022-10-17T10:22:24;39.30;95.00
42615;DHT22;28754;47.700;7.924;2022-10-17T10:25:16;37.90;95.60
42615;DHT22;28754;47.700;7.924;2022-10-17T10:28:09;40.40;93.70
42615;DHT22;28754;47.700;7.924;2022-10-17T10:31:01;42.30;92.10
42615;DHT22;28754;47.700;7.924;2022-10-17T10:33:50;42.80;91.30
42615;DHT22;28754;47.700;7.924;2022-10-17T10:36:49;43.50;91.10
42615;DHT22;28754;47.700;7.924;2022-10-17T10:39:47;43.60;91.30
42615;DHT22;28754;47.700;7.924;2022-10-17T10:42:38;44.40;90.40
42615;DHT22;28754;47.700;7.924;2022-10-17T10:45:28;45.80;89.70
42615;DHT22;28754;47.700;7.924;2022-10-17T10:48:33;46.80;87.20
42615;DHT22;28754;47.700;7.924;2022-10-17T10:51:37;45.10;86.20
42615;DHT22;28754;47.700;7.924;2022-10-17T10:54:32;45.10;84.80
42615;DHT22;28754;47.700;7.924;2022-10-17T10:57:27;46.20;85.70
42615;DHT22;28754;47.700;7.924;2022-10-17T11:00:20;46.60;84.40
42615;DHT22;28754;47.700;7.924;2022-10-17T11:03:17;45.30;86.90
42615;DHT22;28754;47.700;7.924;2022-10-17T11:06:22;45.30;86.30
42615;DHT22;28754;47.700;7.924;2022-10-17T11:10:14;44.80;86.00
42615;DHT22;28754;47.700;7.924;2022-10-17T11:16:19;44.40;83.40
42615;DHT22;28754;47.700;7.924;2022-10-17T11:19:24;44.10;87.00
42615;DHT22;28754;47.700;7.924;2022-10-17T11:22:28;46.50;84.40
42615;DHT22;28754;47.700;7.924;2022-10-17T11:25:33;45.50;83.70
42615;DHT22;28754;47.700;7.924;2022-10-17T11:28:22;45.80;84.80
42615;DHT22;28754;47.700;7.924;2022-10-17T11:31:15;45.20;84.40
42615;DHT22;28754;47.700;7.924;2022-10-17T11:34:04;44.70;86.50
42615;DHT22;28754;47.700;7.924;2022-10-17T11:37:22;43.40;88.60
42615;DHT22;28754;47.700;7.924;2022-10-17T11:40:18;39.60;93.20
42615;DHT22;28754;47.700;7.924;2022-10-17T11:43:26;39.00;92.10
42615;DHT22;28754;47.700;7.924;2022-10-17T11:46:24;39.50;93.00
42615;DHT22;28754;47.700;7.924;2022-10-17T11:49:15;39.50;90.00
42615;DHT22;28754;47.700;7.924;2022-10-17T11:52:32;41.80;91.00
42615;DHT22;28754;47.700;7.924;2022-10-17T11:55:29;45.00;86.90
42615;DHT22;28754;47.700;7.924;2022-10-17T11:58:26;44.80;84.60
42615;DHT22;28754;47.700;7.924;2022-10-17T12:01:43;45.20;84.60
42615;DHT22;28754;47.700;7.924;2022-10-17T12:08:23;40.60;85.50
42615;DHT22;28754;47.700;7.924;2022-10-17T12:11:33;39.70;88.50
42615;DHT22;28754;47.700;7.924;2022-10-17T12:14:46;39.30;88.70
42615;DHT22;28754;47.700;7.924;2022-10-17T12:17:34;39.00;88.90
42615;DHT22;28754;47.700;7.924;2022-10-17T12:20:27;41.40;89.10
42615;DHT22;28754;47.700;7.924;2022-10-17T12:23:17;44.20;87.80
42615;DHT22;28754;47.700;7.924;2022-10-17T12:26:09;41.40;90.60
42615;DHT22;28754;47.700;7.924;2022-10-17T12:28:56;39.10;93.30
42615;DHT22;28754;47.700;7.924;2022-10-17T12:31:43;37.30;93.70
42615;DHT22;28754;47.700;7.924;2022-10-17T12:34:29;38.20;93.40
42615;DHT22;28754;47.700;7.924;2022-10-17T12:46:41;35.20;95.00
42615;DHT22;28754;47.700;7.924;2022-10-17T12:55:18;30.50;99.90
42615;DHT22;28754;47.700;7.924;2022-10-17T12:58:14;32.00;99.90
42615;DHT22;28754;47.700;7.924;2022-10-17T13:01:03;32.80;99.90
42615;DHT22;28754;47.700;7.924;2022-10-17T13:03:51;31.40;99.90
42615;DHT22;28754;47.700;7.924;2022-10-17T13:06:47;30.20;99.90
42615;DHT22;28754;47.700;7.924;2022-10-17T13:09:43;30.20;99.90
42615;DHT22;28754;47.700;7.924;2022-10-17T13:12:33;30.90;99.90
42615;DHT22;28754;47.700;7.924;2022-10-17T13:15:22;31.40;99.90
42615;DHT22;28754;47.700;7.924;2022-10-17T13:18:17;31.80;99.90
42615;DHT22;28754;47.700;7.924;2022-10-17T13:21:15;31.20;99.90
42615;DHT22;28754;47.700;7.924;2022-10-17T13:24:18;32.40;99.90
42615;DHT22;28754;47.700;7.924;2022-10-17T13:27:28;32.30;99.90
42615;DHT22;28754;47.700;7.924;2022-10-17T13:33:28;31.40;99.90
42615;DHT22;28754;47.700;7.924;2022-10-17T13:36:18;30.70;99.90
42615;DHT22;28754;47.700;7.924;2022-10-17T13:39:07;31.20;99.90
42615;DHT22;28754;47.700;7.924;2022-10-17T13:41:58;31.60;99.90
42615;DHT22;28754;47.700;7.924;2022-10-17T13:44:45;31.20;99.90
42615;DHT22;28754;47.700;7.924;2022-10-17T13:47:35;30.50;99.90
42615;DHT22;28754;47.700;7.924;2022-10-17T13:50:37;30.90;99.90
42615;DHT22;28754;47.700;7.924;2022-10-17T13:53:38;30.90;99.90
42615;DHT22;28754;47.700;7.924;2022-10-17T13:56:27;30.10;99.90
42615;DHT22;28754;47.700;7.924;2022-10-17T13:59:22;30.10;99.90
42615;DHT22;28754;47.700;7.924;2022-10-17T14:02:23;30.60;99.90
42615;DHT22;28754;47.700;7.924;2022-10-17T14:05:17;30.00;99.90
42615;DHT22;28754;47.700;7.924;2022-10-17T14:08:04;30.20;99.90
42615;DHT22;28754;47.700;7.924;2022-10-17T14:10:51;30.30;99.90
42615;DHT22;28754;47.700;7.924;2022-10-17T14:13:38;29.70;99.90
42615;DHT22;28754;47.700;7.924;2022-10-17T14:16:26;30.20;99.90
42615;DHT22;28754;47.700;7.924;2022-10-17T14:19:28;29.30;99.90
42615;DHT22;28754;47.700;7.924;2022-10-17T14:22:26;29.30;99.90
42615;DHT22;28754;47.700;7.924;2022-10-17T14:25:30;29.40;99.90
42615;DHT22;28754;47.700;7.924;2022-10-17T14:28:21;28.70;99.90
42615;DHT22;28754;47.700;7.924;2022-10-17T14:31:11;29.00;99.90
42615;DHT22;28754;47.700;7.924;2022-10-17T14:34:25;29.00;99.90
42615;DHT22;28754;47.700;7.924;2022-10-17T14:40:34;28.20;99.90
42615;DHT22;28754;47.700;7.924;2022-10-17T14:43:22;27.00;99.90
42615;DHT22;28754;47.700;7.924;2022-10-17T14:46:15;27.00;99.90
42615;DHT22;28754;47.700;7.924;2022-10-17T14:49:07;27.20;99.90
42615;DHT22;28754;47.700;7.924;2022-10-17T14:55:20;27.30;99.90
42615;DHT22;28754;47.700;7.924;2022-10-17T14:58:24;27.30;99.90
42615;DHT22;28754;47.700;7.924;2022-10-17T15:01:16;26.50;99.90
42615;DHT22;28754;47.700;7.924;2022-10-17T15:04:03;27.20;99.90
42615;DHT22;28754;47.700;7.924;2022-10-17T15:06:56;27.40;99.90
42615;DHT22;28754;47.700;7.924;2022-10-17T15:09:44;26.60;99.90
42615;DHT22;28754;47.700;7.924;2022-10-17T15:12:32;27.00;99.90
42615;DHT22;28754;47.700;7.924;2022-10-17T15:15:22;27.20;99.90
42615;DHT22;28754;47.700;7.924;2022-10-17T15:18:15;26.20;99.90
42615;DHT22;28754;47.700;7.924;2022-10-17T15:21:02;26.20;99.90
42615;DHT22;28754;47.700;7.924;2022-10-17T15:23:51;26.20;99.90
42615;DHT22;28754;47.700;7.924;2022-10-17T15:26:40;25.80;99.90
42615;DHT22;28754;47.700;7.924;2022-10-17T15:29:27;26.50;99.90
42615;DHT22;28754;47.700;7.924;2022-10-17T15:32:14;26.60;99.90
42615;DHT22;28754;47.700;7.924;2022-10-17T15:35:10;26.60;99.90
42615;DHT22;28754;47.700;7.924;2022-10-17T15:38:00;26.50;99.90
42615;DHT22;28754;47.700;7.924;2022-10-17T15:40:51;26.50;99.90
42615;DHT22;28754;47.700;7.924;2022-10-17T15:43:46;26.00;99.90
42615;DHT22;28754;47.700;7.924;2022-10-17T15:46:45;26.10;99.90
42615;DHT22;28754;47.700;7.924;2022-10-17T15:49:50;26.00;99.90
42615;DHT22;28754;47.700;7.924;2022-10-17T15:52:38;25.60;99.90
42615;DHT22;28754;47.700;7.924;2022-10-17T15:55:30;25.50;99.90
42615;DHT22;28754;47.700;7.924;2022-10-17T16:03:30;24.90;99.90
42615;DHT22;28754;47.700;7.924;2022-10-17T16:14:33;24.30;99.90
42615;DHT22;28754;47.700;7.924;2022-10-17T16:21:37;23.50;99.90
42615;DHT22;28754;47.700;7.924;2022-10-17T16:39:27;22.40;99.90
42615;DHT22;28754;47.700;7.924;2022-10-17T16:46:56;21.90;99.90
42615;DHT22;28754;47.700;7.924;2022-10-17T16:50:11;21.80;99.90
42615;DHT22;28754;47.700;7.924;2022-10-17T16:53:01;21.90;99.90
42615;DHT22;28754;47.700;7.924;2022-10-17T16:56:12;22.00;99.90
42615;DHT22;28754;47.700;7.924;2022-10-17T17:00:00;21.80;99.90
42615;DHT22;28754;47.700;7.924;2022-10-17T17:02:57;21.70;99.90
42615;DHT22;28754;47.700;7.924;2022-10-17T17:06:06;21.60;99.90
42615;DHT22;28754;47.700;7.924;2022-10-17T17:13:54;21.40;99.90
42615;DHT22;28754;47.700;7.924;2022-10-17T17:17:08;21.30;99.90
42615;DHT22;28754;47.700;7.924;2022-10-17T17:24:32;20.60;99.90
42615;DHT22;28754;47.700;7.924;2022-10-17T17:27:20;20.70;99.90
42615;DHT22;28754;47.700;7.924;2022-10-17T17:30:10;20.80;99.90
42615;DHT22;28754;47.700;7.924;2022-10-17T17:41:18;20.80;99.90
42615;DHT22;28754;47.700;7.924;2022-10-17T17:47:49;20.80;99.90
42615;DHT22;28754;47.700;7.924;2022-10-17T17:51:42;20.90;99.90
42615;DHT22;28754;47.700;7.924;2022-10-17T17:54:31;20.80;99.90
42615;DHT22;28754;47.700;7.924;2022-10-17T17:57:18;20.80;99.90
42615;DHT22;28754;47.700;7.924;2022-10-17T18:00:11;20.70;99.90
42615;DHT22;28754;47.700;7.924;2022-10-17T18:12:48;20.10;99.90
42615;DHT22;28754;47.700;7.924;2022-10-17T18:20:32;20.00;99.90
42615;DHT22;28754;47.700;7.924;2022-10-17T18:23:38;19.70;99.90
42615;DHT22;28754;47.700;7.924;2022-10-17T18:26:36;19.80;99.90
42615;DHT22;28754;47.700;7.924;2022-10-17T18:29:22;19.80;99.90
42615;DHT22;28754;47.700;7.924;2022-10-17T18:32:09;19.70;99.90
42615;DHT22;28754;47.700;7.924;2022-10-17T18:34:56;19.80;99.90
42615;DHT22;28754;47.700;7.924;2022-10-17T18:37:46;19.60;99.90
42615;DHT22;28754;47.700;7.924;2022-10-17T18:40:44;19.60;99.90
42615;DHT22;28754;47.700;7.924;2022-10-17T18:48:59;19.20;99.90
42615;DHT22;28754;47.700;7.924;2022-10-17T18:57:40;19.10;99.90
42615;DHT22;28754;47.700;7.924;2022-10-17T19:00:59;19.10;99.90
42615;DHT22;28754;47.700;7.924;2022-10-17T19:22:41;19.00;99.90
42615;DHT22;28754;47.700;7.924;2022-10-17T19:25:28;18.80;99.90
42615;DHT22;28754;47.700;7.924;2022-10-17T19:28:15;18.90;99.90
42615;DHT22;28754;47.700;7.924;2022-10-17T19:31:04;18.90;99.90
42615;DHT22;28754;47.700;7.924;2022-10-17T19:33:52;18.90;99.90
42615;DHT22;28754;47.700;7.924;2022-10-17T19:36:39;18.90;99.90
42615;DHT22;28754;47.700;7.924;2022-10-17T19:39:27;18.80;99.90
42615;DHT22;28754;47.700;7.924;2022-10-17T19:42:29;18.80;99.90
42615;DHT22;28754;47.700;7.924;2022-10-17T19:45:58;18.70;99.90
42615;DHT22;28754;47.700;7.924;2022-10-17T19:49:58;18.60;99.90
42615;DHT22;28754;47.700;7.924;2022-10-17T19:53:22;18.70;99.90
42615;DHT22;28754;47.700;7.924;2022-10-17T19:56:16;18.80;99.90
42615;DHT22;28754;47.700;7.924;2022-10-17T19:59:10;18.70;99.90
42615;DHT22;28754;47.700;7.924;2022-10-17T20:02:01;18.70;99.90
42615;DHT22;28754;47.700;7.924;2022-10-17T20:04:51;18.60;99.90
42615;DHT22;28754;47.700;7.924;2022-10-17T20:07:38;18.60;99.90
42615;DHT22;28754;47.700;7.924;2022-10-17T20:10:25;18.60;99.90
42615;DHT22;28754;47.700;7.924;2022-10-17T20:13:15;18.40;99.90
42615;DHT22;28754;47.700;7.924;2022-10-17T20:16:03;18.30;99.90
42615;DHT22;28754;47.700;7.924;2022-10-17T20:18:53;18.20;99.90
42615;DHT22;28754;47.700;7.924;2022-10-17T20:21:42;18.30;99.90
42615;DHT22;28754;47.700;7.924;2022-10-17T20:24:36;18.30;99.90
42615;DHT22;28754;47.700;7.924;2022-10-17T20:35:41;18.40;99.90
42615;DHT22;28754;47.700;7.924;2022-10-17T20:52:04;18.20;99.90
42615;DHT22;28754;47.700;7.924;2022-10-17T21:01:36;18.00;99.90
42615;DHT22;28754;47.700;7.924;2022-10-17T21:05:06;18.00;99.90
42615;DHT22;28754;47.700;7.924;2022-10-17T21:08:35;17.90;99.90
42615;DHT22;28754;47.700;7.924;2022-10-17T21:15:49;17.80;99.90
42615;DHT22;28754;47.700;7.924;2022-10-17T21:18:45;17.80;99.90
42615;DHT22;28754;47.700;7.924;2022-10-17T21:22:03;17.80;99.90
42615;DHT22;28754;47.700;7.924;2022-10-17T21:25:21;17.90;99.90
42615;DHT22;28754;47.700;7.924;2022-10-17T21:28:08;18.00;99.90
42615;DHT22;28754;47.700;7.924;2022-10-17T21:31:27;17.90;99.90
42615;DHT22;28754;47.700;7.924;2022-10-17T21:34:37;17.90;99.90
42615;DHT22;28754;47.700;7.924;2022-10-17T21:37:27;18.00;99.90
42615;DHT22;28754;47.700;7.924;2022-10-17T21:44:15;18.00;99.90
42615;DHT22;28754;47.700;7.924;2022-10-17T21:47:08;18.20;99.90